Flight Track Log - Related Links

Times and Time Zones

All times are in EDT time to prevent confusion due to time zone crossing. See the AWE997 flight status page for this flight to view local times or setup timezone preferences in your user account.

Time Position Orientation Groundspeed Altitude Reporting Facility
EDT Latitude Longitude Course Direction KTS MPH feet Rate Location/Type
Thu 09:05:02 PM 32.8743 -97.0519 191° South 180 207 1,900  Level FlightAware ADS-B
Thu 09:05:21 PM 32.8674 -97.0535 192° South 185 213 2,200 750 Climbing FlightAware ADS-B
Thu 09:05:42 PM 32.8389 -97.0610 192° South 224 258 2,400 1,000 Climbing FlightAware ADS-B
Thu 09:06:03 PM 32.8158 -97.0670 192° South 244 281 2,900 1,610 Climbing FlightAware ADS-B
Thu 09:06:23 PM 32.7930 -97.0724 191° South 250 288 3,500 2,000 Climbing FlightAware ADS-B
Thu 09:06:42 PM 32.7720 -97.0772 190° South 253 291 4,200 2,250 Climbing FlightAware ADS-B
Thu 09:07:03 PM 32.7482 -97.0825 190° South 254 292 5,000 2,400 Climbing FlightAware ADS-B
Thu 09:07:22 PM 32.7257 -97.0875 190° South 255 293 5,800 2,400 Climbing FlightAware ADS-B
Thu 09:07:43 PM 32.7009 -97.0927 190° South 257 296 6,600 2,100 Climbing FlightAware ADS-B
Thu 09:08:02 PM 32.6783 -97.0962 181° South 264 304 7,200 1,846 Climbing FlightAware ADS-B
Thu 09:08:22 PM 32.6586 -97.0919 158° South 275 316 7,800 1,950 Climbing FlightAware ADS-B
Thu 09:08:42 PM 32.6324 -97.0748 151° Southeast 276 318 8,500 1,902 Climbing FlightAware ADS-B
Thu 09:09:03 PM 32.6118 -97.0600 147° Southeast 288 331 9,100 2,049 Climbing FlightAware ADS-B
Thu 09:09:23 PM 32.5843 -97.0394 147° Southeast 290 334 9,900 1,447 Climbing FlightAware ADS-B
Thu 09:11:24 PM 32.4256 -96.9198 146° Southeast 370 426 12,500 1,687 Climbing FlightAware ADS-B
Thu 09:14:04 PM 32.1655 -96.7703 162° South 397 457 17,800 1,938 Climbing FlightAware ADS-B
Thu 09:14:36 PM 32.1101 -96.7493 162° South 404 465 18,700 1,608 Climbing FlightAware ADS-B
Thu 09:15:41 PM 31.9888 -96.7031 161° South 420 483 20,400 1,500 Climbing FlightAware ADS-B
Thu 09:15:56 PM 31.9639 -96.6935 161° South 425 489 20,700 1,297 Climbing FlightAware ADS-B
Thu 09:16:18 PM 31.9199 -96.6768 162° South 430 495 21,200 1,500 Climbing FlightAware ADS-B
Thu 09:16:48 PM 31.8651 -96.6560 161° South 435 501 22,000 1,444 Climbing FlightAware ADS-B
Thu 09:17:12 PM 31.8227 -96.6385 160° South 439 505 22,500 1,350 Climbing FlightAware ADS-B
Thu 09:17:28 PM 31.7898 -96.6248 160° South 441 507 22,900 1,500 Climbing FlightAware ADS-B
Thu 09:17:48 PM 31.7470 -96.6070 160° South 446 513 23,400 1,560 Climbing FlightAware ADS-B
Thu 09:18:18 PM 31.6883 -96.5829 160° South 451 519 24,200 1,500 Climbing FlightAware ADS-B
Thu 09:18:48 PM 31.6289 -96.5586 160° South 455 524 24,900 1,500 Climbing FlightAware ADS-B
Thu 09:19:18 PM 31.5696 -96.5346 160° South 456 525 25,700 1,300 Climbing FlightAware ADS-B
Thu 09:19:48 PM 31.5087 -96.5099 160° South 462 532 26,200 800 Climbing FlightAware ADS-B
Thu 09:20:18 PM 31.4469 -96.4850 158° South 475 547 26,500 1,000 Climbing FlightAware ADS-B
Thu 09:20:48 PM 31.3877 -96.4513 150° Southeast 477 549 27,200 1,300 Climbing FlightAware ADS-B
Thu 09:21:18 PM 31.3321 -96.4096 146° Southeast 480 552 27,800 1,300 Climbing FlightAware ADS-B
Thu 09:21:48 PM 31.2763 -96.3659 146° Southeast 478 550 28,500 1,180 Climbing FlightAware ADS-B
Thu 09:22:19 PM 31.2204 -96.3224 146° Southeast 482 555 29,000 1,000 Climbing FlightAware ADS-B
Thu 09:22:48 PM 31.1647 -96.2794 146° Southeast 485 558 29,500 1,017 Climbing FlightAware ADS-B
Thu 09:23:18 PM 31.1099 -96.2374 146° Southeast 488 562 30,000 984 Climbing FlightAware ADS-B
Thu 09:23:49 PM 31.0510 -96.1924 146° Southeast 490 564 30,500 1,000 Climbing FlightAware ADS-B
Thu 09:24:18 PM 30.9945 -96.1493 146° Southeast 495 570 31,000 800 Climbing FlightAware ADS-B
Thu 09:25:19 PM 30.8775 -96.0602 146° Southeast 504 580 31,700 733 Climbing FlightAware ADS-B
Thu 09:25:48 PM 30.8186 -96.0154 146° Southeast 507 583 32,100 1,100 Climbing FlightAware ADS-B
Thu 09:26:19 PM 30.7593 -95.9704 146° Southeast 505 581 32,800 1,400 Climbing FlightAware ADS-B
Thu 09:26:48 PM 30.7012 -95.9261 146° Southeast 500 575 33,500 1,220 Climbing FlightAware ADS-B
Thu 09:27:18 PM 30.6434 -95.8825 146° Southeast 499 574 34,000 1,000 Climbing FlightAware ADS-B
Thu 09:27:48 PM 30.5864 -95.8393 146° Southeast 499 574 34,500 700 Climbing FlightAware ADS-B
Thu 09:28:18 PM 30.5271 -95.7946 146° Southeast 502 578 34,700 500 Climbing FlightAware ADS-B
Thu 09:28:48 PM 30.4685 -95.7503 146° Southeast 505 581 35,000 310 Climbing FlightAware ADS-B
Thu 09:29:16 PM 30.4131 -95.7088 147° Southeast 504 580 35,000  Level FlightAware ADS-B
Thu 09:29:46 PM 30.3538 -95.6647 147° Southeast 503 579 35,000  Level FlightAware ADS-B
Thu 09:30:17 PM 30.2949 -95.6209 147° Southeast 502 578 35,000  Level FlightAware ADS-B
Thu 09:30:38 PM 30.2525 -95.5894 147° Southeast 502 578 35,000  Level FlightAware ADS-B
Thu 09:31:07 PM 30.2364 -95.5775 147° Southeast 500 575 35,000  Level FlightAware ADS-B (KSGR)
Thu 09:31:40 PM 30.1444 -95.5093 147° Southeast 497 572 35,000  Level FlightAware ADS-B (KSGR)
Thu 09:32:10 PM 30.0858 -95.4659 147° Southeast 494 568 35,000  Level FlightAware ADS-B (KSGR)
Thu 09:32:43 PM 30.0233 -95.4196 147° Southeast 493 567 35,000  Level FlightAware ADS-B (KSGR)
Thu 09:33:13 PM 29.9543 -95.3687 147° Southeast 492 566 35,000  Level FlightAware ADS-B (KSGR)
Thu 09:33:42 PM 29.9032 -95.3311 147° Southeast 489 563 35,000  Level FlightAware ADS-B (KSGR)
Thu 09:34:13 PM 29.8502 -95.2920 147° Southeast 488 562 35,000  Level FlightAware ADS-B (KEFD)
Thu 09:34:35 PM 29.8034 -95.2576 147° Southeast 486 559 35,000  Level FlightAware ADS-B (KEFD)
Thu 09:35:11 PM 29.7292 -95.2032 147° Southeast 486 559 35,000  Level FlightAware ADS-B (KSGR)
Thu 09:35:43 PM 29.7064 -95.1865 147° Southeast 486 559 35,000  Level FlightAware ADS-B (KSGR)
Thu 09:36:11 PM 29.6162 -95.1205 147° Southeast 486 559 35,000  Level FlightAware ADS-B (KEFD)
Thu 09:36:43 PM 29.5575 -95.0774 147° Southeast 485 558 35,000  Level FlightAware ADS-B (KEFD)
Thu 09:37:12 PM 29.5555 -95.0761 147° Southeast 485 558 35,000  Level FlightAware ADS-B (KSGR)
Thu 09:37:43 PM 29.4509 -94.9996 147° Southeast 486 559 35,000  Level FlightAware ADS-B (KEFD)
Thu 09:38:14 PM 29.3820 -94.9495 147° Southeast 486 559 35,000  Level FlightAware ADS-B (KEFD)
Thu 09:38:47 PM 29.3198 -94.9042 147° Southeast 486 559 35,000  Level FlightAware ADS-B
Thu 09:39:16 PM 29.2635 -94.8634 147° Southeast 485 558 35,000  Level FlightAware ADS-B
Thu 09:39:55 PM 29.1897 -94.8128 149° Southeast 484 557 35,000  Level FlightAware ADS-B
Thu 09:40:27 PM 29.1329 -94.7750 149° Southeast 485 558 35,000  Level FlightAware ADS-B
Thu 09:41:06 PM 29.0511 -94.7200 149° Southeast 486 559 35,000  Level FlightAware ADS-B
Thu 09:41:28 PM 29.0085 -94.6912 149° Southeast 486 559 35,000  Level FlightAware ADS-B
Thu 09:42:07 PM 28.9338 -94.6404 149° Southeast 484 557 35,000  Level FlightAware ADS-B
Thu 09:42:36 PM 28.8770 -94.6020 149° Southeast 485 558 35,000  Level FlightAware ADS-B
Thu 09:43:06 PM 28.8178 -94.5621 149° Southeast 486 559 35,000  Level FlightAware ADS-B
Thu 09:43:37 PM 28.7601 -94.5231 149° Southeast 486 559 35,000  Level FlightAware ADS-B
Thu 09:44:07 PM 28.7018 -94.4839 149° Southeast 489 563 35,000  Level FlightAware ADS-B
Thu 09:44:37 PM 28.6449 -94.4457 149° Southeast 491 565 35,000  Level FlightAware ADS-B
Thu 09:45:07 PM 28.5838 -94.4048 149° Southeast 489 563 35,000  Level FlightAware ADS-B
Thu 09:45:34 PM 28.5309 -94.3694 149° Southeast 488 562 35,000  Level FlightAware ADS-B
Thu 09:46:06 PM 28.4669 -94.3266 149° Southeast 489 563 35,000  Level FlightAware ADS-B
Thu 09:46:36 PM 28.4153 -94.2921 149° Southeast 490 564 35,000  Level FlightAware ADS-B
Thu 09:47:06 PM 28.3493 -94.2481 149° Southeast 490 564 35,000  Level FlightAware ADS-B
Thu 09:47:37 PM 28.2906 -94.2091 149° Southeast 491 565 35,000  Level FlightAware ADS-B
Thu 09:48:05 PM 28.2343 -94.1715 149° Southeast 492 566 35,000  Level FlightAware ADS-B
Thu 09:48:29 PM 28.1887 -94.1399 148° Southeast 493 567 35,000  Level FlightAware ADS-B
Thu 09:51:51 PM 27.8381 -93.8124 139° Southeast 488 562 35,000  Level FlightAware ADS-B
Thu 09:52:51 PM 27.7298 -93.7099 139° Southeast 488 562 35,000  Level FlightAware ADS-B
Thu 09:53:48 PM 27.6315 -93.6170 139° Southeast 486 559 35,000  Level FlightAware ADS-B
Thu 09:54:19 PM 27.5770 -93.5656 140° Southeast 485 558 35,000  Level FlightAware ADS-B
Thu 09:55:48 PM 27.4284 -93.4259 140° Southeast 485 558 35,000  Level FlightAware ADS-B
Thu 09:57:51 PM 27.2125 -93.2238 140° Southeast 489 563 35,000  Level FlightAware ADS-B
Thu 10:02:07 PM 26.7640 -92.8175 147° Southeast 484 557 35,000 16 Level FlightAware ADS-B
Thu 10:08:00 PM 26.0767 -92.3580 150° Southeast  Level FlightAware Approximate
Thu 10:09:00 PM 25.9592 -92.2816 150° Southeast  Level FlightAware Approximate
Thu 10:10:00 PM 25.8416 -92.2053 150° Southeast  Level FlightAware Approximate
Thu 10:11:00 PM 25.7241 -92.1289 150° Southeast  Level FlightAware Approximate
Thu 10:12:00 PM 25.6066 -92.0525 150° Southeast  Level FlightAware Approximate
Thu 10:13:00 PM 25.4891 -91.9762 149° Southeast  Level FlightAware Approximate
Thu 10:14:00 PM 25.3720 -91.8994 149° Southeast  Level FlightAware Approximate
Thu 10:15:00 PM 25.2548 -91.8228 149° Southeast  Level FlightAware Approximate
Thu 10:16:00 PM 25.1375 -91.7463 149° Southeast  Level FlightAware Approximate
Thu 10:17:00 PM 25.0202 -91.6699 149° Southeast  Level FlightAware Approximate
Thu 10:18:00 PM 24.9029 -91.5937 149° Southeast  Level FlightAware Approximate
Thu 10:19:00 PM 24.7855 -91.5177 150° Southeast  Level FlightAware Approximate
Thu 10:20:00 PM 24.6681 -91.4418 150° Southeast  Level FlightAware Approximate
Thu 10:21:00 PM 24.5507 -91.3660 150° Southeast  Level FlightAware Approximate
Thu 10:22:00 PM 24.4296 -91.2981 155° Southeast  Level FlightAware Approximate
Thu 10:23:00 PM 24.3057 -91.2361 156° South  Level FlightAware Approximate
Thu 10:24:00 PM 24.1814 -91.1752 156° South  Level FlightAware Approximate
Thu 10:25:00 PM 24.0569 -91.1148 156° South  Level FlightAware Approximate
Thu 10:26:00 PM 23.9324 -91.0544 156° South  Level FlightAware Approximate
Thu 10:27:00 PM 23.8079 -90.9942 156° South  Level FlightAware Approximate
Thu 10:28:00 PM 23.6833 -90.9341 156° South  Level FlightAware Approximate
Thu 10:29:00 PM 23.5588 -90.8742 156° South  Level FlightAware Approximate
Thu 10:30:00 PM 23.4342 -90.8143 156° South  Level FlightAware Approximate
Thu 10:31:00 PM 23.3095 -90.7546 156° South  Level FlightAware Approximate
Thu 10:32:00 PM 23.1858 -90.6928 155° Southeast  Level FlightAware Approximate
Thu 10:33:00 PM 23.0610 -90.6337 159° South  Level FlightAware Approximate
Thu 10:34:00 PM 22.9339 -90.5808 159° South  Level FlightAware Approximate
Thu 10:35:00 PM 22.8086 -90.5229 156° South  Level FlightAware Approximate
Thu 10:36:00 PM 22.6841 -90.4633 156° South  Level FlightAware Approximate
Thu 10:37:00 PM 22.5595 -90.4038 156° South  Level FlightAware Approximate
Thu 10:38:00 PM 22.4348 -90.3445 156° South  Level FlightAware Approximate
Thu 10:39:00 PM 22.3101 -90.2854 156° South  Level FlightAware Approximate
Thu 10:40:00 PM 22.1853 -90.2266 157° South  Level FlightAware Approximate
Thu 10:41:00 PM 22.0601 -90.1688 157° South  Level FlightAware Approximate
Thu 10:42:00 PM 21.9349 -90.1112 157° South  Level FlightAware Approximate
Thu 10:43:00 PM 21.8097 -90.0537 157° South  Level FlightAware Approximate
Thu 10:44:00 PM 21.6844 -89.9962 157° South  Level FlightAware Approximate
Thu 10:45:00 PM 21.5590 -89.9390 157° South  Level FlightAware Approximate
Thu 10:46:00 PM 21.4335 -89.8825 157° South  Level FlightAware Approximate
Thu 10:47:00 PM 21.3079 -89.8260 157° South  Level FlightAware Approximate
Thu 10:48:00 PM 21.1829 -89.7681 156° South  Level FlightAware Approximate
Thu 10:49:00 PM 21.0583 -89.7091 156° South  Level FlightAware Approximate
Thu 10:50:00 PM 20.9338 -89.6502 156° South  Level FlightAware Approximate
Thu 10:51:00 PM 20.8068 -89.5977 159° South  Level FlightAware Approximate
Thu 10:52:00 PM 20.6797 -89.5453 159° South  Level FlightAware Approximate
Thu 10:53:00 PM 20.5527 -89.4931 159° South  Level FlightAware Approximate
Thu 10:54:00 PM 20.4256 -89.4409 159° South  Level FlightAware Approximate
Thu 10:55:00 PM 20.2985 -89.3887 159° South  Level FlightAware Approximate
Thu 10:56:00 PM 20.1714 -89.3367 159° South  Level FlightAware Approximate
Thu 10:57:00 PM 20.0443 -89.2848 159° South  Level FlightAware Approximate
Thu 10:58:00 PM 19.9169 -89.2338 160° South  Level FlightAware Approximate
Thu 10:59:00 PM 19.7893 -89.1833 160° South  Level FlightAware Approximate
Thu 11:00:00 PM 19.6616 -89.1330 160° South  Level FlightAware Approximate
Thu 11:01:00 PM 19.5340 -89.0827 160° South  Level FlightAware Approximate
Thu 11:02:00 PM 19.4063 -89.0325 160° South  Level FlightAware Approximate
Thu 11:03:00 PM 19.2786 -88.9824 160° South  Level FlightAware Approximate
Thu 11:04:00 PM 19.1509 -88.9324 160° South  Level FlightAware Approximate
Thu 11:05:00 PM 19.0232 -88.8824 160° South  Level FlightAware Approximate
Thu 11:06:00 PM 18.8955 -88.8326 160° South  Level FlightAware Approximate
Thu 11:07:00 PM 18.7678 -88.7827 160° South  Level FlightAware Approximate
Thu 11:08:00 PM 18.6400 -88.7330 160° South  Level FlightAware Approximate
Thu 11:09:00 PM 18.5123 -88.6834 160° South  Level FlightAware Approximate
Thu 11:10:00 PM 18.3845 -88.6338 160° South  Level FlightAware Approximate
Thu 11:11:00 PM 18.2556 -88.5876 161° South  Level FlightAware Approximate
Thu 11:12:00 PM 18.1267 -88.5415 161° South  Level FlightAware Approximate
Thu 11:13:00 PM 17.9977 -88.4956 161° South  Level FlightAware Approximate
Thu 11:14:00 PM 17.8699 -88.4463 157° South  Level FlightAware Approximate
Thu 11:15:00 PM 17.7442 -88.3916 157° South  Level FlightAware Approximate
Thu 11:16:00 PM 17.6184 -88.3369 158° South  Level FlightAware Approximate
Thu 11:17:00 PM 17.4900 -88.2913 169° South  Level FlightAware Approximate
Thu 11:18:00 PM 17.3563 -88.2645 169° South  Level FlightAware Approximate
Thu 11:19:00 PM 17.2225 -88.2378 169° South  Level FlightAware Approximate
Thu 11:20:00 PM 17.0887 -88.2115 170° South  Level FlightAware Approximate
Thu 11:21:00 PM 16.9548 -88.1869 170° South  Level FlightAware Approximate
Thu 11:22:00 PM 16.8210 -88.1622 170° South  Level FlightAware Approximate
Thu 11:23:00 PM 16.6871 -88.1377 170° South  Level FlightAware Approximate
Thu 11:24:00 PM 16.5532 -88.1131 170° South  Level FlightAware Approximate
Thu 11:25:00 PM 16.4194 -88.0886 170° South  Level FlightAware Approximate
Thu 11:26:00 PM 16.2855 -88.0641 170° South  Level FlightAware Approximate
Thu 11:27:00 PM 16.1516 -88.0397 170° South  Level FlightAware Approximate
Thu 11:28:00 PM 16.0181 -88.0131 169° South  Level FlightAware Approximate
Thu 11:29:00 PM 15.8848 -87.9857 169° South  Level FlightAware Approximate
Thu 11:30:00 PM 15.7514 -87.9583 169° South  Level FlightAware Approximate
Thu 11:31:00 PM 15.6181 -87.9310 169° South  Level FlightAware Approximate
Thu 11:32:00 PM 15.4847 -87.9037 169° South  Level FlightAware Approximate
Thu 11:33:00 PM 15.3608 -87.8471 154° Southeast  Level FlightAware Approximate
Thu 11:34:00 PM 15.2371 -87.7887 157° South  Level FlightAware Approximate
Thu 11:35:00 PM 15.1122 -87.7331 157° South  Level FlightAware Approximate
Thu 11:36:00 PM 14.9873 -87.6776 157° South  Level FlightAware Approximate
Thu 11:37:00 PM 14.8624 -87.6222 157° South  Level FlightAware Approximate
Thu 11:38:00 PM 14.7388 -87.5630 155° Southeast  Level FlightAware Approximate
Thu 11:39:00 PM 14.6154 -87.5036 155° Southeast  Level FlightAware Approximate
Thu 11:40:00 PM 14.4920 -87.4442 155° Southeast  Level FlightAware Approximate
Thu 11:41:00 PM 14.3686 -87.3849 155° Southeast  Level FlightAware Approximate
Thu 11:42:00 PM 14.2450 -87.3258 155° Southeast  Level FlightAware Approximate
Thu 11:43:00 PM 14.1215 -87.2667 155° Southeast  Level FlightAware Approximate
Thu 11:44:00 PM 13.9962 -87.2191 187° South  Level FlightAware Approximate
Thu 11:45:00 PM 13.8610 -87.2354 187° South  Level FlightAware Approximate
Thu 11:46:00 PM 13.7257 -87.2516 187° South  Level FlightAware Approximate
Thu 11:47:00 PM 13.5923 -87.2607 143° Southeast  Level FlightAware Approximate
Thu 11:48:00 PM 13.4834 -87.1767 143° Southeast  Level FlightAware Approximate
Thu 11:49:00 PM 13.3745 -87.0928 143° Southeast  Level FlightAware Approximate
Thu 11:50:00 PM 13.2655 -87.0089 143° Southeast  Level FlightAware Approximate
Thu 11:51:00 PM 13.1565 -86.9251 143° Southeast  Level FlightAware Approximate
Thu 11:52:00 PM 13.0474 -86.8414 143° Southeast  Level FlightAware Approximate
Thu 11:53:00 PM 12.9382 -86.7580 144° Southeast  Level FlightAware Approximate
Thu 11:54:00 PM 12.8277 -86.6765 144° Southeast  Level FlightAware Approximate
Thu 11:55:00 PM 12.7171 -86.5950 144° Southeast  Level FlightAware Approximate
Thu 11:56:00 PM 12.6064 -86.5137 144° Southeast  Level FlightAware Approximate
Thu 11:57:00 PM 12.4958 -86.4324 144° Southeast  Level FlightAware Approximate
Thu 11:58:00 PM 12.3851 -86.3512 144° Southeast  Level FlightAware Approximate
Thu 11:59:00 PM 12.2745 -86.2700 144° Southeast  Level FlightAware Approximate
Fri 12:00:00 AM 12.1637 -86.1889 144° Southeast  Level FlightAware Approximate
Fri 12:01:00 AM 12.0417 -86.1290 158° South  Level FlightAware Approximate
Fri 12:02:00 AM 11.9153 -86.0771 158° South  Level FlightAware Approximate
Fri 12:03:00 AM 11.7890 -86.0253 158° South  Level FlightAware Approximate
Fri 12:04:00 AM 11.6626 -85.9735 158° South  Level FlightAware Approximate
Fri 12:04:33 AM 11.5790 -85.9458 158° South 486 559 37,000  Level FlightAware ADS-B (MRPV / SYQ)
Fri 12:05:03 AM 11.5156 -85.9201 158° South 487 560 37,000  Level FlightAware ADS-B (MRPV / SYQ)
Fri 12:05:32 AM 11.4559 -85.8959 158° South 486 559 37,000  Level FlightAware ADS-B (MRPV / SYQ)
Fri 12:06:01 AM 11.3921 -85.8700 158° South 486 559 37,000  Level FlightAware ADS-B (MRPV / SYQ)
Fri 12:06:53 AM 11.2855 -85.8267 158° South 486 559 37,000  Level FlightAware ADS-B (MRPV / SYQ)
Fri 12:07:33 AM 11.2017 -85.7927 158° South 485 558 37,000  Level FlightAware ADS-B (MRPV / SYQ)
Fri 12:08:02 AM 11.1406 -85.7686 158° South 485 558 37,000  Level FlightAware ADS-B (MRPV / SYQ)
Fri 12:08:33 AM 11.0750 -85.7429 158° South 482 555 37,000  Level FlightAware ADS-B (MRPV / SYQ)
Fri 12:09:03 AM 11.0122 -85.7179 157° South 481 554 37,000  Level FlightAware ADS-B (MRPV / SYQ)
Fri 12:09:33 AM 10.9501 -85.6922 157° South 479 551 37,000  Level FlightAware ADS-B (MRPV / SYQ)
Fri 12:10:02 AM 10.8918 -85.6681 157° South 478 550 37,000  Level FlightAware ADS-B (MRPV / SYQ)
Fri 12:10:32 AM 10.8402 -85.6469 157° South 478 550 37,000  Level FlightAware ADS-B (MRPV / SYQ)
Fri 12:11:03 AM 10.7650 -85.6161 157° South 478 550 37,000  Level FlightAware ADS-B (MRPV / SYQ)
Fri 12:11:30 AM 10.7135 -85.5950 158° South 478 550 37,000  Level FlightAware ADS-B (MRPV / SYQ)
Fri 12:12:03 AM 10.6416 -85.5657 158° South 478 550 37,000  Level FlightAware ADS-B (MRPV / SYQ)
Fri 12:12:34 AM 10.5764 -85.5420 162° South 477 549 37,000  Level FlightAware ADS-B (MRPV / SYQ)
Fri 12:13:04 AM 10.5135 -85.5228 163° South 477 549 37,000  Level FlightAware ADS-B (MRPV / SYQ)
Fri 12:13:33 AM 10.4506 -85.5046 164° South 478 550 37,000  Level FlightAware ADS-B (MRPV / SYQ)
Fri 12:14:02 AM 10.3880 -85.4866 164° South 479 551 37,000  Level FlightAware ADS-B (MRPV / SYQ)
Fri 12:14:33 AM 10.3235 -85.4679 164° South 479 551 37,000  Level FlightAware ADS-B (MRPV / SYQ)
Fri 12:15:04 AM 10.2571 -85.4488 164° South 479 551 37,000  Level FlightAware ADS-B (MRPV / SYQ)
Fri 12:15:33 AM 10.1972 -85.4316 164° South 479 551 37,000  Level FlightAware ADS-B (MRPV / SYQ)
Fri 12:16:04 AM 10.1282 -85.4116 163° South 478 550 37,000  Level FlightAware ADS-B (MRPV / SYQ)
Fri 12:16:33 AM 10.0674 -85.3941 164° South 477 549 37,000  Level FlightAware ADS-B (MRPV / SYQ)
Fri 12:17:03 AM 10.0026 -85.3753 163° South 475 547 37,000  Level FlightAware ADS-B (MRPV / SYQ)
Fri 12:17:34 AM 9.9377 -85.3565 163° South 474 545 37,000  Level FlightAware ADS-B (MRPV / SYQ)
Fri 12:18:18 AM 9.8444 -85.3295 164° South 472 543 37,000  Level FlightAware ADS-B (MRPV / SYQ)
Fri 12:18:48 AM 9.7810 -85.3113 164° South 469 540 37,000  Level FlightAware ADS-B (MRPV / SYQ)
Fri 12:19:18 AM 9.7181 -85.2932 164° South 469 540 37,000  Level FlightAware ADS-B (MRPV / SYQ)
Fri 12:19:48 AM 9.6553 -85.2751 163° South 470 541 37,000  Level FlightAware ADS-B (MRPV / SYQ)
Fri 12:20:18 AM 9.5925 -85.2569 163° South 471 542 37,000  Level FlightAware ADS-B (MRPV / SYQ)
Fri 12:20:49 AM 9.5279 -85.2383 164° South 471 542 37,000  Level FlightAware ADS-B (MRPV / SYQ)
Fri 12:21:54 AM 9.3893 -85.1984 163° South 478 550 37,000  Level FlightAware ADS-B (MRPV / SYQ)
Fri 12:22:24 AM 9.3251 -85.1800 163° South 481 554 37,000  Level FlightAware ADS-B (MRPV / SYQ)
Fri 12:22:53 AM 9.2634 -85.1622 164° South 482 555 37,000  Level FlightAware ADS-B (MRPV / SYQ)
Fri 12:23:24 AM 9.1977 -85.1434 164° South 481 554 37,000  Level FlightAware ADS-B (MRPV / SYQ)
Fri 12:24:23 AM 9.0774 -85.1089 164° South 485 558 37,000  Level FlightAware ADS-B (MRPV / SYQ)
Fri 12:24:53 AM 9.0097 -85.0893 164° South 486 559 37,000  Level FlightAware ADS-B (MRPV / SYQ)
Fri 12:25:24 AM 8.9373 -85.0686 164° South 484 557 37,000  Level FlightAware ADS-B (MRPV / SYQ)
Fri 12:25:53 AM 8.8775 -85.0515 164° South 484 557 37,000  Level FlightAware ADS-B (MRPV / SYQ)
Fri 12:26:24 AM 8.8067 -85.0312 163° South 484 557 37,000  Level FlightAware ADS-B (MRPV / SYQ)
Fri 12:26:52 AM 8.7453 -85.0135 164° South 486 559 37,000  Level FlightAware ADS-B (MRPV / SYQ)
Fri 12:27:09 AM 8.7109 -85.0037 164° South 487 560 37,000  Level FlightAware ADS-B (MRPV / SYQ)
Fri 12:27:54 AM 8.6391 -84.9831 164° South 487 560 37,000  Level FlightAware ADS-B (MRPV / SYQ)
Fri 12:30:00 AM 8.3647 -84.9038 164° South  Level FlightAware Approximate
Fri 12:31:00 AM 8.2340 -84.8660 164° South  Level FlightAware Approximate
Fri 12:32:00 AM 8.1033 -84.8283 164° South  Level FlightAware Approximate
Fri 12:33:00 AM 7.9726 -84.7905 164° South  Level FlightAware Approximate
Fri 12:34:00 AM 7.8419 -84.7528 164° South  Level FlightAware Approximate
Fri 12:35:00 AM 7.7112 -84.7151 164° South  Level FlightAware Approximate
Fri 12:36:00 AM 7.5806 -84.6775 164° South  Level FlightAware Approximate
Fri 12:37:00 AM 7.4499 -84.6398 164° South  Level FlightAware Approximate
Fri 12:38:00 AM 7.3191 -84.6022 164° South  Level FlightAware Approximate
Fri 12:39:00 AM 7.1884 -84.5646 164° South  Level FlightAware Approximate
Fri 12:40:00 AM 7.0577 -84.5270 164° South  Level FlightAware Approximate
Fri 12:41:00 AM 6.9270 -84.4895 164° South  Level FlightAware Approximate
Fri 12:42:00 AM 6.7963 -84.4519 164° South  Level FlightAware Approximate
Fri 12:43:00 AM 6.6656 -84.4144 164° South  Level FlightAware Approximate
Fri 12:44:00 AM 6.5349 -84.3769 164° South  Level FlightAware Approximate
Fri 12:45:00 AM 6.4042 -84.3395 164° South  Level FlightAware Approximate
Fri 12:46:00 AM 6.2734 -84.3020 164° South  Level FlightAware Approximate
Fri 12:47:00 AM 6.1427 -84.2646 164° South  Level FlightAware Approximate
Fri 12:48:00 AM 6.0120 -84.2271 164° South  Level FlightAware Approximate
Fri 12:49:00 AM 5.8812 -84.1898 164° South  Level FlightAware Approximate
Fri 12:50:00 AM 5.7505 -84.1524 164° South  Level FlightAware Approximate
Fri 12:51:00 AM 5.6198 -84.1150 164° South  Level FlightAware Approximate
Fri 12:52:00 AM 5.4890 -84.0777 164° South  Level FlightAware Approximate
Fri 12:53:00 AM 5.3583 -84.0403 164° South  Level FlightAware Approximate
Fri 12:54:00 AM 5.2275 -84.0030 164° South  Level FlightAware Approximate
Fri 12:55:00 AM 5.0968 -83.9657 164° South  Level FlightAware Approximate
Fri 12:56:00 AM 4.9661 -83.9284 164° South  Level FlightAware Approximate
Fri 12:57:00 AM 4.8353 -83.8911 164° South  Level FlightAware Approximate
Fri 12:58:00 AM 4.7045 -83.8539 164° South  Level FlightAware Approximate
Fri 12:59:00 AM 4.5738 -83.8166 164° South  Level FlightAware Approximate
Fri 01:00:00 AM 4.4430 -83.7794 164° South  Level FlightAware Approximate
Fri 01:01:00 AM 4.3123 -83.7422 164° South  Level FlightAware Approximate
Fri 01:02:00 AM 4.1815 -83.7050 164° South  Level FlightAware Approximate
Fri 01:03:00 AM 4.0507 -83.6678 164° South  Level FlightAware Approximate
Fri 01:04:00 AM 3.9200 -83.6306 164° South  Level FlightAware Approximate
Fri 01:05:00 AM 3.7892 -83.5935 164° South  Level FlightAware Approximate
Fri 01:06:00 AM 3.6585 -83.5563 164° South  Level FlightAware Approximate
Fri 01:07:00 AM 3.5277 -83.5192 164° South  Level FlightAware Approximate
Fri 01:08:00 AM 3.3969 -83.4820 164° South  Level FlightAware Approximate
Fri 01:09:00 AM 3.2661 -83.4449 164° South  Level FlightAware Approximate
Fri 01:10:00 AM 3.1353 -83.4080 165° South  Level FlightAware Approximate
Fri 01:11:00 AM 3.0043 -83.3718 165° South  Level FlightAware Approximate
Fri 01:12:00 AM 2.8733 -83.3355 165° South  Level FlightAware Approximate
Fri 01:13:00 AM 2.7423 -83.2993 165° South  Level FlightAware Approximate
Fri 01:14:00 AM 2.6112 -83.2631 165° South  Level FlightAware Approximate
Fri 01:15:00 AM 2.4802 -83.2269 165° South  Level FlightAware Approximate
Fri 01:16:00 AM 2.3492 -83.1907 165° South  Level FlightAware Approximate
Fri 01:17:00 AM 2.2182 -83.1545 165° South  Level FlightAware Approximate
Fri 01:18:00 AM 2.0871 -83.1184 165° South  Level FlightAware Approximate
Fri 01:19:00 AM 1.9561 -83.0822 165° South  Level FlightAware Approximate
Fri 01:20:00 AM 1.8251 -83.0460 165° South  Level FlightAware Approximate
Fri 01:21:00 AM 1.6940 -83.0099 165° South  Level FlightAware Approximate
Fri 01:22:00 AM 1.5630 -82.9737 165° South  Level FlightAware Approximate
Fri 01:23:00 AM 1.4320 -82.9376 165° South  Level FlightAware Approximate
Fri 01:24:00 AM 1.3063 -82.8861 157° South  Level FlightAware Approximate
Fri 01:25:00 AM 1.1813 -82.8327 157° South  Level FlightAware Approximate
Fri 01:26:00 AM 1.0563 -82.7793 157° South  Level FlightAware Approximate
Fri 01:27:00 AM 0.9313 -82.7259 157° South  Level FlightAware Approximate
Fri 01:28:00 AM 0.8059 -82.6723 157° South  Level FlightAware Approximate
Fri 01:29:00 AM 0.6805 -82.6187 157° South  Level FlightAware Approximate
Fri 01:30:00 AM 0.5551 -82.5651 157° South  Level FlightAware Approximate
Fri 01:31:00 AM 0.4297 -82.5115 157° South  Level FlightAware Approximate
Fri 01:32:00 AM 0.3043 -82.4579 157° South  Level FlightAware Approximate
Fri 01:33:00 AM 0.1789 -82.4043 157° South  Level FlightAware Approximate
Fri 01:34:00 AM 0.0534 -82.3507 157° South  Level FlightAware Approximate
Fri 01:35:00 AM -0.0720 -82.2971 157° South  Level FlightAware Approximate
Fri 01:36:00 AM -0.1974 -82.2435 157° South  Level FlightAware Approximate
Fri 01:37:00 AM -0.3228 -82.1899 157° South  Level FlightAware Approximate
Fri 01:38:00 AM -0.4482 -82.1363 157° South  Level FlightAware Approximate
Fri 01:39:00 AM -0.5736 -82.0827 157° South  Level FlightAware Approximate
Fri 01:40:00 AM -0.6990 -82.0291 157° South  Level FlightAware Approximate
Fri 01:41:00 AM -0.8245 -81.9755 157° South  Level FlightAware Approximate
Fri 01:42:00 AM -0.9499 -81.9219 157° South  Level FlightAware Approximate
Fri 01:43:00 AM -1.0753 -81.8683 157° South  Level FlightAware Approximate
Fri 01:44:00 AM -1.2007 -81.8147 157° South  Level FlightAware Approximate
Fri 01:45:00 AM -1.3261 -81.7611 157° South  Level FlightAware Approximate
Fri 01:46:00 AM -1.4515 -81.7075 157° South  Level FlightAware Approximate
Fri 01:47:00 AM -1.5769 -81.6538 157° South  Level FlightAware Approximate
Fri 01:48:00 AM -1.7023 -81.6002 157° South  Level FlightAware Approximate
Fri 01:49:00 AM -1.8277 -81.5466 157° South  Level FlightAware Approximate
Fri 01:50:00 AM -1.9536 -81.4927 157° South  Level FlightAware Approximate
Fri 01:51:00 AM -2.0794 -81.4389 157° South  Level FlightAware Approximate
Fri 01:52:00 AM -2.2052 -81.3850 157° South  Level FlightAware Approximate
Fri 01:53:00 AM -2.3310 -81.3312 157° South  Level FlightAware Approximate
Fri 01:54:00 AM -2.4569 -81.2773 157° South  Level FlightAware Approximate
Fri 01:55:00 AM -2.5827 -81.2234 157° South  Level FlightAware Approximate
Fri 01:56:00 AM -2.7085 -81.1695 157° South  Level FlightAware Approximate
Fri 01:57:00 AM -2.8343 -81.1156 157° South  Level FlightAware Approximate
Fri 01:58:00 AM -2.9602 -81.0617 157° South  Level FlightAware Approximate
Fri 01:59:00 AM -3.0860 -81.0078 157° South  Level FlightAware Approximate
Fri 02:00:00 AM -3.2118 -80.9539 157° South  Level FlightAware Approximate
Fri 02:01:00 AM -3.3376 -80.8999 157° South  Level FlightAware Approximate
Fri 02:02:00 AM -3.4634 -80.8459 157° South  Level FlightAware Approximate
Fri 02:03:00 AM -3.5892 -80.7920 157° South  Level FlightAware Approximate
Fri 02:04:00 AM -3.7150 -80.7380 157° South  Level FlightAware Approximate
Fri 02:05:00 AM -3.8408 -80.6840 157° South  Level FlightAware Approximate
Fri 02:06:00 AM -3.9666 -80.6299 157° South  Level FlightAware Approximate
Fri 02:07:00 AM -4.0924 -80.5759 157° South  Level FlightAware Approximate
Fri 02:08:00 AM -4.2181 -80.5218 157° South  Level FlightAware Approximate
Fri 02:09:00 AM -4.3439 -80.4678 157° South  Level FlightAware Approximate
Fri 02:10:00 AM -4.4697 -80.4137 157° South  Level FlightAware Approximate
Fri 02:11:00 AM -4.5955 -80.3596 157° South  Level FlightAware Approximate
Fri 02:12:00 AM -4.7212 -80.3054 157° South  Level FlightAware Approximate
Fri 02:13:00 AM -4.8470 -80.2513 157° South  Level FlightAware Approximate
Fri 02:14:00 AM -4.9728 -80.1971 157° South  Level FlightAware Approximate
Fri 02:15:00 AM -5.0985 -80.1429 157° South  Level FlightAware Approximate
Fri 02:16:00 AM -5.2243 -80.0887 157° South  Level FlightAware Approximate
Fri 02:17:00 AM -5.3500 -80.0345 157° South  Level FlightAware Approximate
Fri 02:18:00 AM -5.4758 -79.9802 157° South  Level FlightAware Approximate
Fri 02:19:00 AM -5.6015 -79.9259 157° South  Level FlightAware Approximate
Fri 02:20:00 AM -5.7272 -79.8716 157° South  Level FlightAware Approximate
Fri 02:21:00 AM -5.8530 -79.8173 157° South  Level FlightAware Approximate
Fri 02:22:00 AM -5.9787 -79.7629 157° South  Level FlightAware Approximate
Fri 02:23:00 AM -6.1044 -79.7086 157° South  Level FlightAware Approximate
Fri 02:24:00 AM -6.2301 -79.6542 157° South  Level FlightAware Approximate
Fri 02:25:00 AM -6.3558 -79.5997 157° South  Level FlightAware Approximate
Fri 02:26:00 AM -6.4815 -79.5453 157° South  Level FlightAware Approximate
Fri 02:27:00 AM -6.6072 -79.4908 157° South  Level FlightAware Approximate
Fri 02:28:00 AM -6.7329 -79.4363 157° South  Level FlightAware Approximate
Fri 02:29:00 AM -6.8586 -79.3818 157° South  Level FlightAware Approximate
Fri 02:30:00 AM -6.9843 -79.3272 157° South  Level FlightAware Approximate
Fri 02:31:00 AM -7.1099 -79.2726 157° South  Level FlightAware Approximate
Fri 02:32:00 AM -7.2356 -79.2180 157° South  Level FlightAware Approximate
Fri 02:33:00 AM -7.3612 -79.1633 157° South  Level FlightAware Approximate
Fri 02:34:00 AM -7.4869 -79.1086 157° South  Level FlightAware Approximate
Fri 02:35:00 AM -7.6125 -79.0539 157° South  Level FlightAware Approximate
Fri 02:36:00 AM -7.7382 -78.9992 157° South  Level FlightAware Approximate
Fri 02:37:00 AM -7.8638 -78.9444 157° South  Level FlightAware Approximate
Fri 02:38:00 AM -7.9894 -78.8895 157° South  Level FlightAware Approximate
Fri 02:39:00 AM -8.1152 -78.8346 157° South  Level FlightAware Approximate
Fri 02:40:00 AM -8.2411 -78.7796 157° South  Level FlightAware Approximate
Fri 02:41:00 AM -8.3669 -78.7246 157° South  Level FlightAware Approximate
Fri 02:42:00 AM -8.4927 -78.6696 157° South  Level FlightAware Approximate
Fri 02:43:00 AM -8.6185 -78.6145 157° South  Level FlightAware Approximate
Fri 02:44:00 AM -8.7443 -78.5593 157° South  Level FlightAware Approximate
Fri 02:45:00 AM -8.8701 -78.5042 157° South  Level FlightAware Approximate
Fri 02:46:00 AM -8.9958 -78.4490 157° South  Level FlightAware Approximate
Fri 02:47:00 AM -9.1216 -78.3938 157° South  Level FlightAware Approximate
Fri 02:48:00 AM -9.2474 -78.3385 157° South  Level FlightAware Approximate
Fri 02:49:00 AM -9.3731 -78.2832 157° South  Level FlightAware Approximate
Fri 02:50:00 AM -9.4989 -78.2278 157° South  Level FlightAware Approximate
Fri 02:51:00 AM -9.6246 -78.1724 157° South  Level FlightAware Approximate
Fri 02:52:00 AM -9.7503 -78.1170 157° South  Level FlightAware Approximate
Fri 02:53:00 AM -9.8760 -78.0615 157° South  Level FlightAware Approximate
Fri 02:54:00 AM -10.0018 -78.0060 156° South  Level FlightAware Approximate
Fri 02:55:00 AM -10.1275 -77.9504 156° South  Level FlightAware Approximate
Fri 02:56:00 AM -10.2531 -77.8948 156° South  Level FlightAware Approximate
Fri 02:57:00 AM -10.3788 -77.8392 156° South  Level FlightAware Approximate
Fri 02:58:00 AM -10.5045 -77.7835 156° South  Level FlightAware Approximate
Fri 02:59:00 AM -10.6301 -77.7277 156° South  Level FlightAware Approximate
Fri 03:00:00 AM -10.7558 -77.6719 156° South  Level FlightAware Approximate
Fri 03:01:00 AM -10.8814 -77.6161 156° South  Level FlightAware Approximate
Fri 03:02:00 AM -11.0071 -77.5602 156° South  Level FlightAware Approximate
Fri 03:03:00 AM -11.1327 -77.5043 156° South  Level FlightAware Approximate
Fri 03:04:00 AM -11.2583 -77.4483 156° South  Level FlightAware Approximate
Fri 03:05:00 AM -11.3839 -77.3923 156° South  Level FlightAware Approximate
Fri 03:06:00 AM -11.5095 -77.3362 156° South  Level FlightAware Approximate
Fri 03:07:00 AM -11.6351 -77.2801 156° South  Level FlightAware Approximate
Fri 03:08:00 AM -11.7606 -77.2239 156° South  Level FlightAware Approximate
Fri 03:09:00 AM -11.8862 -77.1677 156° South  Level FlightAware Approximate
Fri 03:10:00 AM -12.0124 -77.1133 165° South  Level FlightAware Approximate
Fri 03:11:00 AM -12.1447 -77.0766 165° South  Level FlightAware Approximate
Fri 03:12:00 AM -12.2770 -77.0400 165° South  Level FlightAware Approximate
Fri 03:13:00 AM -12.4093 -77.0033 165° South  Level FlightAware Approximate
Fri 03:14:00 AM -12.5416 -76.9665 165° South  Level FlightAware Approximate
Fri 03:15:00 AM -12.6740 -76.9298 165° South  Level FlightAware Approximate
Fri 03:16:00 AM -12.8063 -76.8930 165° South  Level FlightAware Approximate
Fri 03:17:00 AM -12.9386 -76.8561 165° South  Level FlightAware Approximate
Fri 03:18:00 AM -13.0709 -76.8192 165° South  Level FlightAware Approximate
Fri 03:19:00 AM -13.2031 -76.7823 165° South  Level FlightAware Approximate
Fri 03:20:00 AM -13.3354 -76.7454 165° South  Level FlightAware Approximate
Fri 03:21:00 AM -13.4677 -76.7083 165° South  Level FlightAware Approximate
Fri 03:22:00 AM -13.6000 -76.6713 165° South  Level FlightAware Approximate
Fri 03:23:00 AM -13.7322 -76.6342 165° South  Level FlightAware Approximate
Fri 03:24:00 AM -13.8645 -76.5971 165° South  Level FlightAware Approximate
Fri 03:25:00 AM -13.9967 -76.5599 165° South  Level FlightAware Approximate
Fri 03:26:00 AM -14.1290 -76.5227 165° South  Level FlightAware Approximate
Fri 03:27:00 AM -14.2612 -76.4854 165° South  Level FlightAware Approximate
Fri 03:28:00 AM -14.3935 -76.4481 165° South  Level FlightAware Approximate
Fri 03:29:00 AM -14.5257 -76.4108 165° South  Level FlightAware Approximate
Fri 03:30:00 AM -14.6579 -76.3734 165° South  Level FlightAware Approximate
Fri 03:31:00 AM -14.7902 -76.3360 165° South  Level FlightAware Approximate
Fri 03:32:00 AM -14.9224 -76.2985 165° South  Level FlightAware Approximate
Fri 03:33:00 AM -15.0546 -76.2609 165° South  Level FlightAware Approximate
Fri 03:34:00 AM -15.1868 -76.2234 165° South  Level FlightAware Approximate
Fri 03:35:00 AM -15.3190 -76.1858 165° South  Level FlightAware Approximate
Fri 03:36:00 AM -15.4512 -76.1481 165° South  Level FlightAware Approximate
Fri 03:37:00 AM -15.5834 -76.1104 165° South  Level FlightAware Approximate
Fri 03:38:00 AM -15.7155 -76.0726 165° South  Level FlightAware Approximate
Fri 03:39:00 AM -15.8477 -76.0348 165° South  Level FlightAware Approximate
Fri 03:40:00 AM -15.9799 -75.9969 165° South  Level FlightAware Approximate
Fri 03:41:00 AM -16.1120 -75.9590 165° South  Level FlightAware Approximate
Fri 03:42:00 AM -16.2442 -75.9211 165° South  Level FlightAware Approximate
Fri 03:43:00 AM -16.3763 -75.8830 165° South  Level FlightAware Approximate
Fri 03:44:00 AM -16.5084 -75.8450 165° South  Level FlightAware Approximate
Fri 03:45:00 AM -16.6406 -75.8068 165° South  Level FlightAware Approximate
Fri 03:46:00 AM -16.7727 -75.7687 165° South  Level FlightAware Approximate
Fri 03:47:00 AM -16.9048 -75.7305 165° South  Level FlightAware Approximate
Fri 03:48:00 AM -17.0369 -75.6922 165° South  Level FlightAware Approximate
Fri 03:49:00 AM -17.1690 -75.6538 165° South  Level FlightAware Approximate
Fri 03:50:00 AM -17.3011 -75.6154 164° South  Level FlightAware Approximate
Fri 03:51:00 AM -17.4332 -75.5770 164° South  Level FlightAware Approximate
Fri 03:52:00 AM -17.5653 -75.5385 164° South  Level FlightAware Approximate
Fri 03:53:00 AM -17.6973 -75.5000 164° South  Level FlightAware Approximate
Fri 03:54:00 AM -17.8294 -75.4613 164° South  Level FlightAware Approximate
Fri 03:55:00 AM -17.9615 -75.4227 164° South  Level FlightAware Approximate
Fri 03:56:00 AM -18.0935 -75.3839 164° South  Level FlightAware Approximate
Fri 03:57:00 AM -18.2256 -75.3452 164° South  Level FlightAware Approximate
Fri 03:58:00 AM -18.3576 -75.3063 164° South  Level FlightAware Approximate
Fri 03:59:00 AM -18.4896 -75.2674 164° South  Level FlightAware Approximate
Fri 04:00:00 AM -18.6216 -75.2285 164° South  Level FlightAware Approximate
Fri 04:01:00 AM -18.7537 -75.1894 164° South  Level FlightAware Approximate
Fri 04:02:00 AM -18.8857 -75.1504 164° South  Level FlightAware Approximate
Fri 04:03:00 AM -19.0176 -75.1112 164° South  Level FlightAware Approximate
Fri 04:04:00 AM -19.1496 -75.0720 164° South  Level FlightAware Approximate
Fri 04:05:00 AM -19.2816 -75.0327 164° South  Level FlightAware Approximate
Fri 04:06:00 AM -19.4136 -74.9934 164° South  Level FlightAware Approximate
Fri 04:07:00 AM -19.5455 -74.9540 164° South  Level FlightAware Approximate
Fri 04:08:00 AM -19.6775 -74.9145 164° South  Level FlightAware Approximate
Fri 04:09:00 AM -19.8094 -74.8750 164° South  Level FlightAware Approximate
Fri 04:10:00 AM -19.9414 -74.8354 164° South  Level FlightAware Approximate
Fri 04:11:00 AM -20.0733 -74.7958 164° South  Level FlightAware Approximate
Fri 04:12:00 AM -20.2052 -74.7560 164° South  Level FlightAware Approximate
Fri 04:13:00 AM -20.3371 -74.7162 164° South  Level FlightAware Approximate
Fri 04:14:00 AM -20.4690 -74.6764 164° South  Level FlightAware Approximate
Fri 04:15:00 AM -20.6009 -74.6364 164° South  Level FlightAware Approximate
Fri 04:16:00 AM -20.7328 -74.5964 164° South  Level FlightAware Approximate
Fri 04:17:00 AM -20.8647 -74.5564 164° South  Level FlightAware Approximate
Fri 04:18:00 AM -20.9965 -74.5162 164° South  Level FlightAware Approximate
Fri 04:19:00 AM -21.1284 -74.4760 164° South  Level FlightAware Approximate
Fri 04:20:00 AM -21.2602 -74.4357 164° South  Level FlightAware Approximate
Fri 04:21:00 AM -21.3920 -74.3954 164° South  Level FlightAware Approximate
Fri 04:22:00 AM -21.5239 -74.3549 164° South  Level FlightAware Approximate
Fri 04:23:00 AM -21.6557 -74.3145 164° South  Level FlightAware Approximate
Fri 04:24:00 AM -21.7875 -74.2739 164° South  Level FlightAware Approximate
Fri 04:25:00 AM -21.9193 -74.2332 164° South  Level FlightAware Approximate
Fri 04:26:00 AM -22.0511 -74.1925 164° South  Level FlightAware Approximate
Fri 04:27:00 AM -22.1828 -74.1517 164° South  Level FlightAware Approximate
Fri 04:28:00 AM -22.3146 -74.1108 164° South  Level FlightAware Approximate
Fri 04:29:00 AM -22.4463 -74.0699 164° South  Level FlightAware Approximate
Fri 04:30:00 AM -22.5781 -74.0288 164° South  Level FlightAware Approximate
Fri 04:31:00 AM -22.7098 -73.9877 164° South  Level FlightAware Approximate
Fri 04:32:00 AM -22.8415 -73.9465 164° South  Level FlightAware Approximate
Fri 04:33:00 AM -22.9732 -73.9053 164° South  Level FlightAware Approximate
Fri 04:34:00 AM -23.1049 -73.8639 164° South  Level FlightAware Approximate
Fri 04:35:00 AM -23.2366 -73.8225 164° South  Level FlightAware Approximate
Fri 04:36:00 AM -23.3683 -73.7810 164° South  Level FlightAware Approximate
Fri 04:37:00 AM -23.5000 -73.7394 164° South  Level FlightAware Approximate
Fri 04:38:00 AM -23.6316 -73.6977 164° South  Level FlightAware Approximate
Fri 04:39:00 AM -23.7633 -73.6559 164° South  Level FlightAware Approximate
Fri 04:40:00 AM -23.8949 -73.6141 164° South  Level FlightAware Approximate
Fri 04:41:00 AM -24.0266 -73.5721 164° South  Level FlightAware Approximate
Fri 04:42:00 AM -24.1582 -73.5301 164° South  Level FlightAware Approximate
Fri 04:43:00 AM -24.2898 -73.4880 164° South  Level FlightAware Approximate
Fri 04:44:00 AM -24.4214 -73.4458 164° South  Level FlightAware Approximate
Fri 04:45:00 AM -24.5529 -73.4035 164° South  Level FlightAware Approximate
Fri 04:46:00 AM -24.6845 -73.3612 164° South  Level FlightAware Approximate
Fri 04:47:00 AM -24.8160 -73.3187 164° South  Level FlightAware Approximate
Fri 04:48:00 AM -24.9476 -73.2762 164° South  Level FlightAware Approximate
Fri 04:49:00 AM -25.0791 -73.2335 164° South  Level FlightAware Approximate
Fri 04:50:00 AM -25.2106 -73.1908 164° South  Level FlightAware Approximate
Fri 04:51:00 AM -25.3421 -73.1480 164° South  Level FlightAware Approximate
Fri 04:52:00 AM -25.4736 -73.1050 164° South  Level FlightAware Approximate
Fri 04:53:00 AM -25.6051 -73.0620 164° South  Level FlightAware Approximate
Fri 04:54:00 AM -25.7366 -73.0189 164° South  Level FlightAware Approximate
Fri 04:55:00 AM -25.8680 -72.9757 164° South  Level FlightAware Approximate
Fri 04:56:00 AM -25.9995 -72.9324 164° South  Level FlightAware Approximate
Fri 04:57:00 AM -26.1309 -72.8890 163° South  Level FlightAware Approximate
Fri 04:58:00 AM -26.2623 -72.8455 163° South  Level FlightAware Approximate
Fri 04:59:00 AM -26.3937 -72.8019 163° South  Level FlightAware Approximate
Fri 05:00:00 AM -26.5251 -72.7583 163° South  Level FlightAware Approximate
Fri 05:01:00 AM -26.6565 -72.7145 163° South  Level FlightAware Approximate
Fri 05:02:00 AM -26.7878 -72.6706 163° South  Level FlightAware Approximate
Fri 05:03:00 AM -26.9192 -72.6266 163° South  Level FlightAware Approximate
Fri 05:04:00 AM -27.0505 -72.5825 163° South  Level FlightAware Approximate
Fri 05:05:00 AM -27.1818 -72.5383 163° South  Level FlightAware Approximate
Fri 05:06:00 AM -27.3132 -72.4940 163° South  Level FlightAware Approximate
Fri 05:07:00 AM -27.4444 -72.4496 163° South  Level FlightAware Approximate
Fri 05:08:00 AM -27.5757 -72.4051 163° South  Level FlightAware Approximate
Fri 05:09:00 AM -27.7070 -72.3604 163° South  Level FlightAware Approximate
Fri 05:10:00 AM -27.8382 -72.3157 163° South  Level FlightAware Approximate
Fri 05:11:00 AM -27.9695 -72.2709 163° South  Level FlightAware Approximate
Fri 05:12:00 AM -28.1007 -72.2259 163° South  Level FlightAware Approximate
Fri 05:13:00 AM -28.2319 -72.1809 163° South  Level FlightAware Approximate
Fri 05:14:00 AM -28.3631 -72.1357 163° South  Level FlightAware Approximate
Fri 05:15:00 AM -28.4943 -72.0904 163° South  Level FlightAware Approximate
Fri 05:16:00 AM -28.6254 -72.0450 163° South  Level FlightAware Approximate
Fri 05:17:00 AM -28.7566 -71.9995 163° South  Level FlightAware Approximate
Fri 05:18:00 AM -28.8877 -71.9539 163° South  Level FlightAware Approximate
Fri 05:19:00 AM -29.0188 -71.9082 163° South  Level FlightAware Approximate
Fri 05:20:00 AM -29.1499 -71.8623 163° South  Level FlightAware Approximate
Fri 05:21:00 AM -29.2810 -71.8164 163° South  Level FlightAware Approximate
Fri 05:22:00 AM -29.4121 -71.7703 163° South  Level FlightAware Approximate
Fri 05:23:00 AM -29.5431 -71.7241 163° South  Level FlightAware Approximate
Fri 05:24:00 AM -29.6742 -71.6777 163° South  Level FlightAware Approximate
Fri 05:25:00 AM -29.8052 -71.6313 163° South  Level FlightAware Approximate
Fri 05:26:00 AM -29.9362 -71.5847 163° South  Level FlightAware Approximate
Fri 05:27:00 AM -30.0672 -71.5380 163° South  Level FlightAware Approximate
Fri 05:28:00 AM -30.1982 -71.4912 163° South  Level FlightAware Approximate
Fri 05:29:00 AM -30.2589 -71.3490 116° Southeast  Level Estimated
Fri 05:30:00 AM -30.3257 -71.2104 119° Southeast  Level FlightAware Approximate
Fri 05:31:00 AM -30.3924 -71.0715 119° Southeast  Level FlightAware Approximate
Fri 05:32:00 AM -30.4590 -70.9326 119° Southeast  Level FlightAware Approximate
Fri 05:33:00 AM -30.5254 -70.7934 119° Southeast  Level FlightAware Approximate
Fri 05:34:00 AM -30.5916 -70.6540 119° Southeast  Level FlightAware Approximate
Fri 05:35:00 AM -30.6577 -70.5144 119° Southeast  Level FlightAware Approximate
Fri 05:36:00 AM -30.7237 -70.3747 119° Southeast  Level FlightAware Approximate
Fri 05:37:00 AM -30.7826 -70.2307 117° Southeast  Level Estimated
Fri 05:38:00 AM -30.8443 -70.0881 117° Southeast  Level FlightAware Approximate
Fri 05:39:00 AM -30.9058 -69.9454 117° Southeast  Level FlightAware Approximate
Fri 05:40:00 AM -30.9672 -69.8025 117° Southeast  Level FlightAware Approximate
Fri 05:41:00 AM -31.0284 -69.6594 117° Southeast  Level FlightAware Approximate
Fri 05:42:00 AM -31.0895 -69.5161 116° Southeast  Level FlightAware Approximate
Fri 05:43:00 AM -31.1504 -69.3726 116° Southeast  Level FlightAware Approximate
Fri 05:44:00 AM -31.2109 -69.2294 116° Southeast  Level FlightAware Approximate
Fri 05:45:00 AM -31.2712 -69.0861 116° Southeast  Level FlightAware Approximate
Fri 05:46:00 AM -31.3314 -68.9426 116° Southeast  Level FlightAware Approximate
Fri 05:47:00 AM -31.3915 -68.7989 116° Southeast  Level FlightAware Approximate
Fri 05:48:00 AM -31.4514 -68.6550 116° Southeast  Level FlightAware Approximate
Fri 05:49:00 AM -31.5111 -68.5109 116° Southeast  Level FlightAware Approximate
Fri 05:50:00 AM -31.5672 -68.3647 114° Southeast  Level Estimated
Fri 05:51:00 AM -31.6232 -68.2184 114° Southeast  Level FlightAware Approximate
Fri 05:52:00 AM -31.6789 -68.0719 114° Southeast  Level FlightAware Approximate
Fri 05:53:00 AM -31.7345 -67.9252 114° Southeast  Level FlightAware Approximate
Fri 05:54:00 AM -31.7900 -67.7783 114° Southeast  Level FlightAware Approximate
Fri 05:55:00 AM -31.8452 -67.6313 114° Southeast  Level FlightAware Approximate
Fri 05:56:00 AM -31.9003 -67.4841 114° Southeast  Level FlightAware Approximate
Fri 05:57:00 AM -31.9552 -67.3367 114° Southeast  Level FlightAware Approximate
Fri 05:58:00 AM -32.0100 -67.1891 114° Southeast  Level FlightAware Approximate
Fri 05:59:00 AM -32.0646 -67.0414 114° Southeast  Level FlightAware Approximate
Fri 06:00:00 AM -32.1190 -66.8935 114° Southeast  Level FlightAware Approximate
Fri 06:01:00 AM -32.1732 -66.7454 113° Southeast  Level FlightAware Approximate
Fri 06:02:00 AM -32.2273 -66.5971 113° Southeast  Level FlightAware Approximate
Fri 06:03:00 AM -32.2812 -66.4486 113° Southeast  Level FlightAware Approximate
Fri 06:04:00 AM -32.3349 -66.3000 113° Southeast  Level FlightAware Approximate
Fri 06:05:00 AM -32.3884 -66.1512 113° Southeast  Level FlightAware Approximate
Fri 06:06:00 AM -32.4418 -66.0022 113° Southeast  Level FlightAware Approximate
Fri 06:07:00 AM -32.4950 -65.8531 113° Southeast  Level FlightAware Approximate
Fri 06:08:00 AM -32.5480 -65.7038 113° Southeast  Level FlightAware Approximate
Fri 06:09:00 AM -32.6008 -65.5543 113° Southeast  Level FlightAware Approximate
Fri 06:10:00 AM -32.6535 -65.4046 113° Southeast  Level FlightAware Approximate
Fri 06:11:00 AM -32.7060 -65.2547 113° Southeast  Level FlightAware Approximate
Fri 06:12:00 AM -32.7583 -65.1047 113° Southeast  Level FlightAware Approximate
Fri 06:13:00 AM -32.8104 -64.9545 112° Southeast  Level FlightAware Approximate
Fri 06:14:00 AM -32.8624 -64.8041 112° Southeast  Level FlightAware Approximate
Fri 06:15:00 AM -32.9141 -64.6535 112° Southeast  Level FlightAware Approximate
Fri 06:16:00 AM -32.9657 -64.5028 112° Southeast  Level FlightAware Approximate
Fri 06:17:00 AM -33.0171 -64.3519 112° Southeast  Level FlightAware Approximate
Fri 06:18:00 AM -33.0683 -64.2008 112° Southeast  Level FlightAware Approximate
Fri 06:19:00 AM -33.1194 -64.0495 112° Southeast  Level FlightAware Approximate
Fri 06:20:00 AM -33.1702 -63.8981 112° Southeast  Level FlightAware Approximate
Fri 06:21:00 AM -33.2209 -63.7465 112° Southeast  Level FlightAware Approximate
Fri 06:22:00 AM -33.2714 -63.5947 112° Southeast  Level FlightAware Approximate
Fri 06:23:00 AM -33.3217 -63.4427 112° Southeast  Level FlightAware Approximate
Fri 06:24:00 AM -33.3718 -63.2906 112° Southeast  Level FlightAware Approximate
Fri 06:25:00 AM -33.4218 -63.1382 111° Southeast  Level FlightAware Approximate
Fri 06:26:00 AM -33.4715 -62.9857 111° Southeast  Level FlightAware Approximate
Fri 06:27:00 AM -33.5211 -62.8331 111° Southeast  Level FlightAware Approximate
Fri 06:28:00 AM -33.5704 -62.6802 111° Southeast  Level FlightAware Approximate
Fri 06:29:00 AM -33.6196 -62.5272 111° Southeast  Level FlightAware Approximate
Fri 06:30:00 AM -33.6686 -62.3740 111° Southeast  Level FlightAware Approximate
Fri 06:31:00 AM -33.7174 -62.2207 111° Southeast  Level FlightAware Approximate
Fri 06:32:00 AM -33.7660 -62.0671 111° Southeast  Level FlightAware Approximate
Fri 06:33:00 AM -33.8145 -61.9134 111° Southeast  Level FlightAware Approximate
Fri 06:34:00 AM -33.8627 -61.7595 111° Southeast  Level FlightAware Approximate
Fri 06:35:00 AM -33.9108 -61.6055 111° Southeast  Level FlightAware Approximate
Fri 06:36:00 AM -33.9586 -61.4512 111° Southeast  Level FlightAware Approximate
Fri 06:37:00 AM -34.0063 -61.2968 110° East  Level FlightAware Approximate
Fri 06:38:00 AM -34.0537 -61.1423 110° East  Level FlightAware Approximate
Fri 06:39:00 AM -34.1012 -60.9876 108° East  Level Estimated
Fri 06:40:00 AM -34.1417 -60.8300 107° East  Level FlightAware Approximate
Fri 06:41:00 AM -34.1819 -60.6722 107° East  Level FlightAware Approximate
Fri 06:42:00 AM -34.2298 -60.5175 109° East  Level Estimated
Fri 06:43:00 AM -34.2795 -60.3635 111° Southeast  Level FlightAware Approximate
Fri 06:44:00 AM -34.3269 -60.2084 108° East  Level Estimated
Fri 06:45:00 AM -34.3666 -60.0501 107° East  Level FlightAware Approximate
Fri 06:46:00 AM -34.4143 -59.8949 112° Southeast  Level Estimated
Fri 06:47:00 AM -34.4618 -59.7396 109° East  Level Estimated
Fri 06:48:00 AM -34.5093 -59.5842 110° East  Level FlightAware Approximate
Fri 06:49:00 AM -34.5565 -59.4286 110° East  Level FlightAware Approximate
Fri 06:50:00 AM -34.6033 -59.2727 107° East  Level Estimated
Fri 06:51:00 AM -34.6500 -59.1166 108° East  Level Estimated
Fri 06:52:00 AM -34.6964 -58.9604 112° Southeast  Level Estimated

Login

Don't have an account? Register now (free) for customized features, flight alerts, and more!